Date,TemperatureHighF,TemperatureAvgF,TemperatureLowF,DewpointHighF,DewpointAvgF,DewpointLowF,HumidityHigh,HumidityAvg,HumidityLow,PressureMaxIn,PressureMinIn,WindSpeedMaxMPH,WindSpeedAvgMPH,GustSpeedMaxMPH,PrecipitationSumIn
2013-1-1,80,73,67,73,69,67,99,88,77,29.93,29.78,12,3,20,0.00
2013-1-10,82,77,71,79,75,71,99,94,80,30.03,29.91,9,3,17,0.00
2013-1-11,83,76,70,79,75,69,99,96,83,30.00,29.88,11,3,16,0.00
2013-1-12,85,75,68,83,74,67,99,96,82,29.92,29.82,11,2,17,0.00
2013-1-13,83,74,66,78,72,66,99,95,73,29.86,29.81,12,2,23,0.00
2013-1-14,81,73,65,77,70,64,99,93,79,29.91,29.85,12,2,18,0.00
2013-1-15,87,72,64,84,71,64,99,97,81,29.88,29.78,8,2,16,0.00
2013-1-16,86,72,63,85,72,63,99,98,91,29.84,29.75,10,2,17,0.00
2013-1-17,84,72,61,84,71,61,99,99,93,29.85,29.71,11,2,24,0.08
2013-1-18,70,63,55,69,62,54,99,95,81,30.00,29.85,8,2,16,0.00
2013-1-19,74,68,62,74,67,62,99,99,99,29.96,29.83,7,1,11,0.06
2013-1-20,83,72,65,79,70,64,99,97,75,29.90,29.74,4,1,9,0.00
2013-1-21,82,73,66,81,73,66,99,98,91,29.81,29.69,9,1,14,0.00
2013-1-22,77,68,62,72,66,62,99,94,77,29.96,29.75,11,3,19,0.00
2013-1-23,76,66,60,69,63,60,99,91,64,30.04,29.93,8,2,15,0.00
2013-1-24,79,66,57,66,61,56,99,86,64,30.04,29.93,7,2,14,0.00
2013-1-25,81,67,57,67,62,57,99,87,56,30.04,29.91,7,1,13,0.00
2013-1-26,82,67,58,71,64,57,99,91,67,30.00,29.89,8,1,13,0.00
2013-1-27,80,71,62,76,69,62,99,94,73,30.02,29.94,8,2,14,0.00
2013-1-28,82,75,69,76,72,69,99,92,74,30.05,29.95,10,3,22,0.00
2013-1-29,84,75,67,83,74,67,99,98,90,29.98,29.86,12,3,19,0.09
2013-1-30,80,75,71,77,74,70,99,96,86,29.86,29.71,14,5,24,0.00
2013-1-31,77,69,60,77,68,52,99,97,76,29.92,29.70,8,2,17,0.00
2013-2-1,75,63,52,63,57,47,99,81,63,30.01,29.91,10,4,17,0.00
2013-2-2,78,65,56,64,58,46,99,81,59,30.01,29.86,8,1,14,0.00
2013-2-3,76,64,54,64,56,48,99,79,45,29.92,29.80,11,1,14,0.00
2013-2-4,76,63,51,63,56,49,99,82,48,29.90,29.77,8,1,14,0.00
2013-2-5,82,68,56,72,64,55,99,90,68,29.83,29.74,8,1,14,0.00
2013-2-6,81,70,61,78,69,61,99,95,77,29.85,29.77,7,1,10,0.00
2013-2-7,85,73,62,80,70,62,99,91,70,29.82,29.68,11,2,17,0.00
2013-2-8,87,74,68,84,74,67,99,98,79,29.78,29.66,8,1,11,0.07
2013-2-9,81,72,63,79,70,62,99,96,82,29.91,29.76,6,2,14,0.00
2013-2-10,80,73,67,74,71,66,99,94,71,29.98,29.88,9,3,23,0.00
2013-2-11,80,73,65,77,72,64,99,97,85,29.96,29.85,10,4,17,0.00
2013-2-12,87,74,63,80,72,63,99,94,66,29.86,29.70,11,3,18,0.00
2013-2-13,88,77,68,83,76,67,99,96,78,29.75,29.64,13,2,18,0.00
2013-2-14,88,75,62,84,74,62,99,96,75,29.76,29.59,11,2,20,0.37
2013-2-15,73,67,63,73,66,63,99,99,99,29.75,29.68,6,2,11,0.70
2013-2-16,78,67,55,74,62,54,99,88,50,29.83,29.62,4,1,14,0.02
2013-2-17,62,53,47,55,40,32,99,66,40,30.06,29.83,14,4,25,0.00
2013-2-18,70,60,48,65,54,42,94,79,63,30.06,29.94,8,2,17,0.00
2013-2-19,81,70,58,78,69,58,99,95,77,29.94,29.82,12,3,21,0.00
2013-2-20,81,72,65,78,70,65,99,93,72,29.86,29.75,8,2,14,0.00